Ailey, Georgia
Current Conditions -  °F | °C
As of 5:35 PM on Sunday 23 Nov 2014 (Local Time) from KVDI Reporting Station
Thunderstorm Thunderstorm  
Wind Chill: 21°   Ceiling: 1500
Heat Index: 21°   Visibility: 7mi
Dew Point: 21°   Wind: 3mph
Humidity: 100%   Direction: 160°SSE
Pressure: 29.79"   Gusts: NA
Location:  32.19°N, 82.57°W
Report Text: KVDI 232235Z AUTO 16003KT 7SM -VCTSRA OVC015 21/21 A2979 RMK AO2 LTG DSNT E SW AND NW
Loading
Personal Weather Stations






























Interactive Weather Map New forecast layout! Learn more

10-Day Weather Forecast

Advertisements
Track Severe Weather on mobile